Weather reports worldwide

Advertisment
Kinlochewe, United Kingdom (99092): temperature & dewpoint: 19.05.2018 04:00:00 - 25.05.2018 04:00:00 (BST)Kinlochewe, United Kingdom (99092): temperature -20cm: 19.05.2018 04:00:00 - 25.05.2018 04:00:00 (BST)Kinlochewe, United Kingdom (99092): precipitation: 19.05.2018 04:00:00 - 25.05.2018 04:00:00 (BST)
Date & Time tt [°C] td [°C] tt -20cm [°C] rr [mm]
25.05.2018 04:00:00 10,6 9,7 - -
25.05.2018 03:00:00 10,4 9,5 - 0,0
25.05.2018 02:00:00 10,3 9,5 - 0,0
25.05.2018 01:00:00 9,7 8,5 - 0,0
25.05.2018 00:00:00 10,5 8,7 - 0,0
24.05.2018 23:00:00 12,0 9,0 - 0,0
24.05.2018 22:00:00 14,0 9,3 - 0,0
24.05.2018 21:00:00 15,7 9,7 - 0,0
24.05.2018 20:00:00 16,2 9,7 - 0,0
24.05.2018 19:00:00 20,6 9,9 - 0,0
24.05.2018 18:00:00 21,5 10,0 - 0,0
24.05.2018 17:00:00 23,6 7,3 - 0,0
24.05.2018 16:00:00 23,6 6,6 - 0,0
24.05.2018 15:00:00 23,9 6,3 - 0,0
24.05.2018 14:00:00 22,8 5,1 - 0,0
24.05.2018 13:00:00 23,1 5,2 - 0,0
24.05.2018 12:00:00 22,0 6,4 - 0,0
24.05.2018 11:00:00 21,1 9,5 - 0,0
24.05.2018 10:00:00 18,5 9,9 11,5 0,0
24.05.2018 09:00:00 15,1 9,6 - 0,0
24.05.2018 08:00:00 12,3 8,9 - 0,2
24.05.2018 07:00:00 9,4 7,9 - 0,0
24.05.2018 06:00:00 6,8 6,0 - 0,0
24.05.2018 05:00:00 6,6 5,9 - 0,0
24.05.2018 04:00:00 6,9 6,0 - 0,0
24.05.2018 03:00:00 6,3 5,4 - 0,0
24.05.2018 02:00:00 6,4 5,7 - 0,0
24.05.2018 01:00:00 7,0 5,7 - 0,0
24.05.2018 00:00:00 8,6 6,4 - 0,0
23.05.2018 23:00:00 10,8 7,5 - 0,0
23.05.2018 22:00:00 10,4 8,2 - 0,0
23.05.2018 21:00:00 13,1 8,7 - 0,0
23.05.2018 20:00:00 16,2 9,1 - 0,0
23.05.2018 19:00:00 17,9 9,1 - 0,0
23.05.2018 18:00:00 18,2 8,7 - 0,0
23.05.2018 17:00:00 18,6 9,1 - 0,0
23.05.2018 16:00:00 19,9 8,4 - 0,0
23.05.2018 15:00:00 20,4 7,9 - 0,0
23.05.2018 14:00:00 19,1 7,9 - 0,0
23.05.2018 13:00:00 18,7 8,6 - 0,0
23.05.2018 12:00:00 16,0 7,1 - 0,0
23.05.2018 11:00:00 15,2 7,8 - 0,0
23.05.2018 10:00:00 13,4 7,1 10,7 0,0
23.05.2018 09:00:00 11,9 7,3 - 0,0
23.05.2018 08:00:00 10,3 6,9 - 0,0
23.05.2018 07:00:00 8,1 6,6 - 0,0
23.05.2018 06:00:00 7,1 5,4 - 0,0
23.05.2018 05:00:00 7,8 5,7 - 0,0
23.05.2018 04:00:00 8,5 5,9 - 0,0
23.05.2018 03:00:00 8,6 5,9 - 0,0
23.05.2018 02:00:00 8,9 6,0 - 0,0
23.05.2018 01:00:00 9,0 6,2 - 0,0
23.05.2018 00:00:00 9,1 6,2 - 0,0
22.05.2018 23:00:00 9,1 6,0 - 0,0
22.05.2018 22:00:00 9,3 5,9 - 0,0
22.05.2018 21:00:00 9,8 6,2 - 0,0
22.05.2018 20:00:00 10,2 6,4 - 0,0
22.05.2018 19:00:00 10,9 6,2 - 0,0
22.05.2018 18:00:00 11,4 6,1 - 0,0
22.05.2018 17:00:00 11,7 6,4 - 0,0
22.05.2018 16:00:00 12,0 5,8 - 0,0
22.05.2018 15:00:00 11,8 7,0 - 0,0
22.05.2018 14:00:00 11,0 6,0 - 0,0
22.05.2018 13:00:00 10,7 6,0 - 0,0
22.05.2018 12:00:00 10,6 6,0 - 0,0
22.05.2018 11:00:00 10,1 5,9 - 0,0
22.05.2018 10:00:00 9,1 5,1 10,7 0,0
22.05.2018 09:00:00 8,1 5,2 - 0,0
22.05.2018 08:00:00 7,8 4,8 - 0,0
22.05.2018 07:00:00 7,5 4,7 - 0,0
22.05.2018 06:00:00 6,8 4,2 - 0,0
22.05.2018 05:00:00 5,6 3,8 - 0,0
22.05.2018 04:00:00 5,0 3,0 - 0,0
22.05.2018 03:00:00 4,6 3,8 - 0,0
22.05.2018 02:00:00 5,1 4,0 - 0,0
22.05.2018 01:00:00 5,6 3,7 - 0,0
22.05.2018 00:00:00 7,1 4,8 - 0,0
21.05.2018 23:00:00 6,6 5,3 - 0,0
21.05.2018 22:00:00 6,8 5,7 - 0,0
21.05.2018 21:00:00 6,7 5,6 - 0,0
21.05.2018 20:00:00 6,9 6,0 - 1,0
21.05.2018 19:00:00 6,7 5,6 - 1,0
21.05.2018 18:00:00 6,6 5,1 - 1,2
21.05.2018 17:00:00 7,9 6,7 - 1,0
21.05.2018 16:00:00 7,8 6,5 - 1,0
21.05.2018 15:00:00 8,0 7,0 - 0,6
21.05.2018 14:00:00 8,1 6,5 - 0,2
21.05.2018 13:00:00 8,0 6,9 - 0,0
21.05.2018 12:00:00 8,2 6,9 - 0,0
21.05.2018 11:00:00 8,6 7,8 - 0,2
21.05.2018 10:00:00 8,8 8,1 11,5 0,4
21.05.2018 09:00:00 8,8 8,3 - 0,6
21.05.2018 08:00:00 8,7 8,4 - 1,8
21.05.2018 07:00:00 8,7 8,5 - 2,0
21.05.2018 06:00:00 8,9 8,7 - 1,8
21.05.2018 05:00:00 8,9 8,8 - 1,0
21.05.2018 04:00:00 9,0 8,8 - 0,2
21.05.2018 03:00:00 9,1 8,9 - 0,2
21.05.2018 02:00:00 9,4 9,1 - 0,2
21.05.2018 01:00:00 9,7 9,1 - 0,8
21.05.2018 00:00:00 12,9 12,3 - 0,4
20.05.2018 23:00:00 13,5 12,3 - 0,0
20.05.2018 22:00:00 13,8 12,2 - 0,0
20.05.2018 21:00:00 14,7 12,1 - 0,0
20.05.2018 20:00:00 14,9 12,1 - 0,0
20.05.2018 19:00:00 16,2 11,9 - 0,0
20.05.2018 18:00:00 15,6 12,1 - 0,0
20.05.2018 17:00:00 15,1 12,2 - 0,0
20.05.2018 16:00:00 15,7 12,2 - 0,0
20.05.2018 15:00:00 16,1 11,0 - 0,0
20.05.2018 14:00:00 16,7 10,9 - 0,0
20.05.2018 13:00:00 16,3 10,6 - 0,0
20.05.2018 12:00:00 16,1 10,2 - 0,0
20.05.2018 11:00:00 17,1 10,7 - 0,0
20.05.2018 10:00:00 16,0 9,8 11,2 0,0
20.05.2018 09:00:00 14,8 10,1 - 0,0
20.05.2018 08:00:00 14,1 9,6 - 0,0
20.05.2018 07:00:00 14,1 9,4 - 0,0
20.05.2018 06:00:00 14,8 8,6 - 0,0
20.05.2018 05:00:00 14,9 8,0 - 0,0
20.05.2018 04:00:00 14,7 8,4 - 0,0
20.05.2018 03:00:00 14,5 9,1 - 0,0
20.05.2018 02:00:00 15,2 9,3 - 0,0
20.05.2018 01:00:00 17,2 8,6 - 0,0
20.05.2018 00:00:00 16,5 7,0 - 0,0
19.05.2018 23:00:00 16,0 6,1 - 0,0
19.05.2018 22:00:00 16,6 5,8 - 0,0
19.05.2018 21:00:00 17,6 5,4 - 0,0
19.05.2018 20:00:00 17,9 6,3 - 0,0
19.05.2018 19:00:00 18,4 6,9 - 0,0
19.05.2018 18:00:00 18,8 7,0 - 0,0
19.05.2018 17:00:00 19,5 6,7 - 0,0
19.05.2018 16:00:00 19,2 6,8 - 0,0
19.05.2018 15:00:00 20,2 7,4 - 0,0
19.05.2018 14:00:00 19,2 8,2 - 0,0
19.05.2018 13:00:00 18,0 7,7 - 0,0
19.05.2018 12:00:00 17,0 7,9 - 0,0
19.05.2018 11:00:00 16,4 8,1 - 0,0
19.05.2018 10:00:00 16,1 7,8 10,9 0,0
19.05.2018 09:00:00 16,2 7,4 - 0,0
19.05.2018 08:00:00 14,7 9,2 - 0,0
19.05.2018 07:00:00 12,4 9,1 - 0,0
19.05.2018 06:00:00 11,7 8,6 - 0,0
19.05.2018 05:00:00 11,5 8,5 - 0,0
19.05.2018 04:00:00 11,8 8,4 - 0,0

tt = temperature
td = dewpoint
tt -20cm = temperature -20cm
rr = precipitation

Next stations